Time;durP1;ratioP1;P1;durP2;ratioP2;P2;SDS_P1;SDS_P2;PMS_P1;PMS_P2;Temp;Humidity;BMP_temperature;BMP_pressure;BME280_temperature;BME280_humidity;BME280_pressure;Samples;Min_cycle;Max_cycle;Signal;HPM_P1;HPM_P2
2022/08/21 00:02:18;;;;;;;1.95;0.60;;;15.50;99.90;;;;;;4696444;30;20057;-86
2022/08/21 00:04:45;;;;;;;3.03;0.70;;;15.10;99.90;;;;;;4703111;30;20061;-87
2022/08/21 00:07:11;;;;;;;1.88;0.65;;;15.10;99.90;;;;;;4725042;30;20126;-86
2022/08/21 00:09:37;;;;;;;3.35;0.70;;;15.00;99.90;;;;;;4709117;30;20116;-87
2022/08/21 00:12:03;;;;;;;3.53;0.77;;;15.00;99.90;;;;;;4709769;30;20053;-85
2022/08/21 00:14:29;;;;;;;0.90;0.68;;;15.00;99.90;;;;;;4703602;30;20056;-86
2022/08/21 00:16:55;;;;;;;2.72;0.60;;;15.00;99.90;;;;;;4722983;30;20069;-86
2022/08/21 00:19:24;;;;;;;1.42;0.55;;;14.90;99.90;;;;;;4702672;30;20108;-85
2022/08/21 00:21:51;;;;;;;2.50;0.88;;;14.90;99.90;;;;;;4709806;30;20487;-86
2022/08/21 00:24:18;;;;;;;1.70;0.80;;;14.90;99.90;;;;;;4703558;30;20065;-86
2022/08/21 00:26:45;;;;;;;1.63;0.90;;;14.80;99.90;;;;;;4687925;30;20054;-86
2022/08/21 00:29:13;;;;;;;3.28;0.80;;;14.80;99.90;;;;;;4700843;30;20398;-86
2022/08/21 00:31:42;;;;;;;3.60;0.60;;;14.70;99.90;;;;;;4678554;30;20085;-86
2022/08/21 00:34:11;;;;;;;1.92;0.93;;;14.70;99.90;;;;;;4704132;30;20120;-87
2022/08/21 00:36:37;;;;;;;2.13;0.60;;;15.00;99.90;;;;;;4700464;30;20060;-86
2022/08/21 00:39:06;;;;;;;1.88;0.80;;;14.70;99.90;;;;;;4685187;30;20061;-86
2022/08/21 00:45:27;;;;;;;1.40;0.70;;;14.70;99.90;;;;;;4697760;30;20093;-87
2022/08/21 00:47:59;;;;;;;0.98;0.50;;;14.70;99.90;;;;;;4694568;30;20060;-85
2022/08/21 00:50:29;;;;;;;1.55;0.50;;;14.80;99.90;;;;;;4686980;30;20067;-86
2022/08/21 00:52:56;;;;;;;1.35;0.70;;;14.80;99.90;;;;;;4692696;30;20089;-86
2022/08/21 00:55:25;;;;;;;1.77;0.63;;;15.10;99.90;;;;;;4677341;30;20061;-87
2022/08/21 00:58:01;;;;;;;1.63;0.55;;;14.70;99.90;;;;;;4699955;30;20089;-87
2022/08/21 01:00:36;;;;;;;2.17;0.50;;;14.70;99.90;;;;;;4686276;30;20065;-87
2022/08/21 01:03:08;;;;;;;1.73;0.70;;;14.60;99.90;;;;;;4691067;30;20097;-87
2022/08/21 01:05:46;;;;;;;2.20;0.60;;;14.60;99.90;;;;;;4685816;30;20330;-86
2022/08/21 01:08:13;;;;;;;2.13;0.70;;;14.60;99.90;;;;;;4701661;30;20049;-86
2022/08/21 01:10:43;;;;;;;1.75;0.70;;;15.00;99.90;;;;;;4693561;30;20131;-86
2022/08/21 01:16:51;;;;;;;2.85;0.80;;;14.50;99.90;;;;;;4709255;30;20068;-86
2022/08/21 01:19:19;;;;;;;2.83;0.77;;;14.40;99.90;;;;;;4701191;30;20089;-86
2022/08/21 01:21:45;;;;;;;2.30;0.80;;;14.50;99.90;;;;;;4707312;30;20075;-86
2022/08/21 01:24:12;;;;;;;1.55;0.65;;;14.40;99.90;;;;;;4685851;30;20057;-86
2022/08/21 01:26:38;;;;;;;3.00;1.13;;;14.30;99.90;;;;;;4686634;30;20112;-87
2022/08/21 01:29:19;;;;;;;2.30;0.90;;;14.30;99.90;;;;;;4717360;30;20057;-85
2022/08/21 01:31:46;;;;;;;1.30;0.80;;;14.30;99.90;;;;;;4702207;30;20069;-86
2022/08/21 01:34:12;;;;;;;1.33;0.52;;;14.20;99.90;;;;;;4724685;30;20053;-86
2022/08/21 01:36:38;;;;;;;1.80;0.80;;;14.20;99.90;;;;;;4717807;30;20053;-85
2022/08/21 01:39:05;;;;;;;0.73;0.50;;;14.10;99.90;;;;;;4703598;30;20068;-85
2022/08/21 01:41:31;;;;;;;2.15;1.10;;;14.50;99.90;;;;;;4718342;30;20064;-86
2022/08/21 01:43:57;;;;;;;1.90;0.82;;;13.90;99.90;;;;;;4704217;30;20065;-85
2022/08/21 01:46:22;;;;;;;0.90;0.60;;;14.20;99.90;;;;;;4707084;30;20146;-85
2022/08/21 01:48:48;;;;;;;1.85;0.60;;;14.10;99.90;;;;;;4719242;30;20100;-87
2022/08/21 01:51:14;;;;;;;1.45;0.70;;;14.10;99.90;;;;;;4721486;30;20045;-88
2022/08/21 01:53:40;;;;;;;1.58;0.52;;;14.10;99.90;;;;;;4736839;30;20053;-86
2022/08/21 01:56:10;;;;;;;1.20;0.63;;;14.00;99.90;;;;;;4737222;30;20037;-86
2022/08/21 01:58:38;;;;;;;4.18;0.98;;;14.00;99.90;;;;;;4743576;30;20041;-85
2022/08/21 02:01:05;;;;;;;0.95;0.60;;;13.90;99.90;;;;;;4736385;30;20063;-86
2022/08/21 02:03:31;;;;;;;2.03;0.80;;;14.00;99.90;;;;;;4722858;30;20120;-86
2022/08/21 02:05:57;;;;;;;1.45;0.70;;;13.90;99.90;;;;;;4722480;30;20064;-85
2022/08/21 02:08:23;;;;;;;1.00;0.70;;;13.90;99.90;;;;;;4736732;30;20068;-85
2022/08/21 02:10:50;;;;;;;1.73;0.80;;;13.90;99.90;;;;;;4737157;30;20060;-85
2022/08/21 02:13:16;;;;;;;0.77;0.60;;;13.90;99.90;;;;;;4737775;30;20092;-85
2022/08/21 02:15:42;;;;;;;0.70;0.60;;;13.90;99.90;;;;;;4737626;30;20065;-86
2022/08/21 02:18:08;;;;;;;1.10;0.60;;;13.90;99.90;;;;;;4721522;30;20053;-85
2022/08/21 02:20:39;;;;;;;1.05;0.70;;;13.90;99.90;;;;;;4737643;30;20041;-86
2022/08/21 02:23:07;;;;;;;1.88;0.70;;;13.80;99.90;;;;;;4737796;30;20061;-84
2022/08/21 02:25:33;;;;;;;1.95;0.80;;;13.80;99.90;;;;;;4722492;30;20429;-86
2022/08/21 02:28:05;;;;;;;1.27;0.50;;;13.70;99.90;;;;;;4726418;30;20073;-86
2022/08/21 02:30:35;;;;;;;1.35;0.60;;;13.80;99.90;;;;;;4737839;30;20077;-86
2022/08/21 02:33:01;;;;;;;1.02;0.40;;;13.90;99.90;;;;;;4722031;30;20100;-86
2022/08/21 02:35:27;;;;;;;1.65;0.70;;;13.80;99.90;;;;;;4721978;30;20065;-86
2022/08/21 02:37:59;;;;;;;1.33;0.70;;;13.80;99.90;;;;;;4737035;30;20041;-86
2022/08/21 02:40:32;;;;;;;1.30;0.63;;;14.00;99.90;;;;;;4720594;30;20065;-87
2022/08/21 02:43:02;;;;;;;2.15;0.60;;;13.70;99.90;;;;;;4736172;30;20041;-86
2022/08/21 02:45:28;;;;;;;1.38;0.60;;;13.70;99.90;;;;;;4721804;30;20078;-86
2022/08/21 02:48:17;;;;;;;1.30;0.80;;;13.70;99.90;;;;;;4736794;30;20041;-85
2022/08/21 02:50:46;;;;;;;2.75;0.90;;;13.40;99.90;;;;;;4704863;30;20057;-84
2022/08/21 02:53:16;;;;;;;1.30;0.60;;;13.70;99.90;;;;;;4706911;30;20060;-85
2022/08/21 02:55:43;;;;;;;0.77;0.63;;;13.60;99.90;;;;;;4709778;30;20057;-83
2022/08/21 02:58:10;;;;;;;2.65;0.75;;;13.60;99.90;;;;;;4707426;30;20057;-86
2022/08/21 03:00:36;;;;;;;0.73;0.50;;;13.60;99.90;;;;;;4708274;30;20065;-87
2022/08/21 03:03:04;;;;;;;0.82;0.60;;;13.60;99.90;;;;;;4708568;30;20110;-84
2022/08/21 03:05:31;;;;;;;0.60;0.52;;;13.60;99.90;;;;;;4695255;30;20065;-84
2022/08/21 03:07:59;;;;;;;1.27;0.70;;;13.50;99.90;;;;;;4724292;30;20053;-84
2022/08/21 03:10:25;;;;;;;1.08;0.60;;;13.50;99.90;;;;;;4724353;30;20523;-84
2022/08/21 03:12:51;;;;;;;2.05;0.60;;;13.50;99.90;;;;;;4710306;30;20601;-83
2022/08/21 03:15:25;;;;;;;0.85;0.57;;;13.50;99.90;;;;;;4710498;30;20060;-86
2022/08/21 03:17:52;;;;;;;2.35;0.63;;;13.50;99.90;;;;;;4722297;30;20057;-89
2022/08/21 03:20:22;;;;;;;0.90;0.50;;;13.40;99.90;;;;;;4710207;30;20064;-86
2022/08/21 03:22:48;;;;;;;0.82;0.52;;;13.50;99.90;;;;;;4702628;30;20052;-86
2022/08/21 03:25:14;;;;;;;2.20;1.00;;;13.40;99.90;;;;;;4716810;30;20069;-88
2022/08/21 03:31:21;;;;;;;1.05;0.60;;;13.40;99.90;;;;;;4716061;30;20076;-88
2022/08/21 03:33:47;;;;;;;1.42;0.68;;;13.40;99.90;;;;;;4702044;30;20096;-85
2022/08/21 03:36:13;;;;;;;1.73;0.88;;;13.40;99.90;;;;;;4703676;30;20523;-85
2022/08/21 03:38:39;;;;;;;1.30;0.90;;;13.40;99.90;;;;;;4723808;30;20052;-86
2022/08/21 03:41:06;;;;;;;2.50;0.90;;;13.40;99.90;;;;;;4714767;30;20085;-85
2022/08/21 03:43:35;;;;;;;1.85;0.88;;;13.40;99.90;;;;;;4719022;30;20060;-86
2022/08/21 03:46:03;;;;;;;1.58;0.80;;;13.60;99.90;;;;;;4725131;30;20132;-85
2022/08/21 03:48:29;;;;;;;0.85;0.63;;;13.40;99.90;;;;;;4718875;30;20145;-87
2022/08/21 03:50:56;;;;;;;3.08;0.95;;;13.30;99.90;;;;;;4703413;30;20500;-85
2022/08/21 03:53:22;;;;;;;1.52;0.77;;;13.00;99.90;;;;;;4719020;30;20072;-87
2022/08/21 03:55:50;;;;;;;2.05;0.70;;;13.30;99.90;;;;;;4719074;30;20053;-85
2022/08/21 03:58:19;;;;;;;1.67;0.70;;;13.70;99.90;;;;;;4726096;30;20061;-87
2022/08/21 04:00:46;;;;;;;2.35;0.90;;;13.50;99.90;;;;;;4713578;30;20404;-87
2022/08/21 04:03:12;;;;;;;1.25;0.60;;;13.30;99.90;;;;;;4706713;30;20053;-86
2022/08/21 04:05:38;;;;;;;1.70;0.60;;;12.80;99.90;;;;;;4724820;30;20499;-87
2022/08/21 04:08:06;;;;;;;1.20;0.70;;;13.80;99.90;;;;;;4707697;30;20088;-85
2022/08/21 04:10:34;;;;;;;2.53;0.70;;;13.20;99.90;;;;;;4704859;30;20057;-85
2022/08/21 04:16:42;;;;;;;1.05;0.70;;;13.30;99.90;;;;;;4721497;30;20047;-87
2022/08/21 04:19:13;;;;;;;4.53;0.63;;;13.20;99.90;;;;;;4720821;30;20053;-87
2022/08/21 04:21:39;;;;;;;0.90;0.52;;;13.20;99.90;;;;;;4702543;30;20114;-85
2022/08/21 04:24:07;;;;;;;1.17;0.68;;;13.20;99.90;;;;;;4708080;30;20065;-85
2022/08/21 04:26:34;;;;;;;1.02;0.73;;;13.20;99.90;;;;;;4720429;30;20064;-87
2022/08/21 04:29:00;;;;;;;1.55;0.80;;;13.20;99.90;;;;;;4722397;30;20596;-84
2022/08/21 04:31:28;;;;;;;1.85;0.70;;;13.20;99.90;;;;;;4704300;30;20408;-86
2022/08/21 04:33:54;;;;;;;1.73;0.70;;;13.20;99.90;;;;;;4706305;30;20068;-85
2022/08/21 04:36:20;;;;;;;1.15;0.50;;;13.20;99.90;;;;;;4718064;30;20089;-86
2022/08/21 04:38:46;;;;;;;2.35;0.60;;;13.20;99.90;;;;;;4717972;30;20103;-85
2022/08/21 04:41:12;;;;;;;2.55;0.65;;;13.30;99.90;;;;;;4702808;30;20057;-87
2022/08/21 04:43:39;;;;;;;1.83;0.80;;;13.50;99.90;;;;;;4710188;30;20068;-85
2022/08/21 04:46:05;;;;;;;3.40;0.80;;;13.30;99.90;;;;;;4702198;30;20053;-87
2022/08/21 04:48:32;;;;;;;0.98;0.60;;;13.30;99.90;;;;;;4722449;30;20393;-85
2022/08/21 04:51:07;;;;;;;1.08;0.60;;;13.30;99.90;;;;;;4709169;30;20056;-86
2022/08/21 04:53:41;;;;;;;1.20;0.68;;;13.30;99.90;;;;;;4703330;30;20080;-86
2022/08/21 04:56:18;;;;;;;1.77;0.70;;;13.30;99.90;;;;;;4716891;30;20053;-85
2022/08/21 04:58:44;;;;;;;1.63;0.98;;;13.30;99.90;;;;;;4702315;30;20061;-85
2022/08/21 05:01:15;;;;;;;0.68;0.47;;;13.40;99.90;;;;;;4710027;30;20120;-86
2022/08/21 05:07:25;;;;;;;0.88;0.65;;;13.40;99.90;;;;;;4618021;31;20059;-86
2022/08/21 05:09:54;;;;;;;2.10;0.60;;;13.80;99.90;;;;;;4630989;30;20136;-87
2022/08/21 05:12:21;;;;;;;1.23;0.50;;;13.40;99.90;;;;;;4616068;30;20059;-86
2022/08/21 05:14:56;;;;;;;1.00;0.70;;;13.60;99.90;;;;;;4630044;30;20391;-86
2022/08/21 05:17:26;;;;;;;1.77;0.70;;;13.50;99.90;;;;;;4616210;31;20063;-86
2022/08/21 05:20:14;;;;;;;1.02;0.70;;;13.50;99.90;;;;;;4616295;30;20711;-86
2022/08/21 05:22:47;;;;;;;1.27;0.68;;;13.50;99.90;;;;;;4614682;30;20098;-87
2022/08/21 05:25:14;;;;;;;2.00;0.95;;;13.50;99.90;;;;;;4629888;30;20071;-86
2022/08/21 05:27:50;;;;;;;1.17;0.60;;;13.60;99.90;;;;;;4629978;30;20136;-85
2022/08/21 05:30:15;;;;;;;;;;;13.70;99.90;;;;;;4616095;31;20115;-87
2022/08/21 05:32:56;;;;;;;1.45;0.77;;;13.70;99.90;;;;;;4637526;30;20018;-86
2022/08/21 05:35:32;;;;;;;1.48;0.65;;;13.70;99.90;;;;;;4616340;30;20146;-87
2022/08/21 05:38:03;;;;;;;1.63;0.73;;;13.80;99.90;;;;;;4629936;30;20414;-85
2022/08/21 05:40:31;;;;;;;1.65;0.50;;;14.20;99.90;;;;;;4630052;30;20087;-86
2022/08/21 05:42:58;;;;;;;0.73;0.40;;;13.90;99.90;;;;;;4618190;30;20059;-87
2022/08/21 05:45:37;;;;;;;0.65;0.50;;;14.00;99.90;;;;;;4712090;30;20060;-86
2022/08/21 05:48:34;;;;;;;0.55;0.40;;;14.20;99.90;;;;;;4701441;30;20077;-86
2022/08/21 05:51:34;;;;;;;1.35;0.40;;;14.20;99.90;;;;;;4677458;30;20057;-87
2022/08/21 05:54:20;;;;;;;0.57;0.32;;;14.40;99.90;;;;;;4716308;30;20061;-86
2022/08/21 05:56:52;;;;;;;0.90;0.30;;;14.60;99.90;;;;;;4716524;30;20510;-87
2022/08/21 05:59:18;;;;;;;0.68;0.40;;;14.70;99.90;;;;;;4694711;30;20057;-87
2022/08/21 06:01:55;;;;;;;3.38;0.70;;;15.00;99.90;;;;;;4700977;30;20143;-87
2022/08/21 06:04:20;;;;;;;1.30;0.60;;;15.20;99.90;;;;;;4694634;30;20499;-87
2022/08/21 06:06:47;;;;;;;2.60;0.70;;;15.60;99.90;;;;;;4686622;30;20064;-86
2022/08/21 06:09:13;;;;;;;3.25;0.80;;;15.50;99.90;;;;;;4701267;30;20135;-87
2022/08/21 06:11:39;;;;;;;4.45;1.08;;;15.80;99.90;;;;;;4707179;30;20456;-87
2022/08/21 06:33:59;;;;;;;3.25;0.88;;;17.30;99.90;;;;;;4796673;24;20085;-88
2022/08/21 06:36:27;;;;;;;3.15;0.80;;;17.30;99.90;;;;;;4718110;30;20053;-87
2022/08/21 06:38:55;;;;;;;4.53;0.95;;;17.40;99.90;;;;;;4701917;30;20096;-85
2022/08/21 06:41:21;;;;;;;6.63;1.33;;;17.50;99.90;;;;;;4718034;30;20060;-85
2022/08/21 06:43:47;;;;;;;2.92;1.05;;;17.60;99.90;;;;;;4701035;30;20049;-88
2022/08/21 06:46:12;;;;;;;2.42;0.90;;;17.70;99.90;;;;;;4700715;30;20419;-87
2022/08/21 06:48:38;;;;;;;8.23;1.58;;;17.70;99.90;;;;;;4700949;30;20064;-88
2022/08/21 06:51:04;;;;;;;2.83;0.80;;;17.80;99.90;;;;;;4716413;30;20053;-86
2022/08/21 06:53:30;;;;;;;4.18;1.15;;;17.90;99.90;;;;;;4700835;30;20053;-85
2022/08/21 06:55:56;;;;;;;1.77;0.93;;;18.00;99.90;;;;;;4716737;30;20558;-86
2022/08/21 06:58:27;;;;;;;3.88;0.90;;;18.10;99.90;;;;;;4702507;30;20064;-87
2022/08/21 07:00:56;;;;;;;3.92;1.00;;;18.20;99.90;;;;;;4706482;30;20065;-90
2022/08/21 07:12:35;;;;;;;2.10;1.00;;;19.00;99.90;;;;;;5474532;24;20057;-87
2022/08/21 07:15:19;;;;;;;4.13;0.90;;;19.00;99.90;;;;;;4871844;24;20071;-88
2022/08/21 07:17:45;;;;;;;3.60;0.75;;;18.80;99.90;;;;;;4736272;30;20063;-88
2022/08/21 07:20:11;;;;;;;3.60;0.80;;;19.20;99.90;;;;;;4707060;30;20053;-84
2022/08/21 07:22:40;;;;;;;2.38;0.63;;;19.40;99.90;;;;;;4712781;30;20065;-88
2022/08/21 07:25:09;;;;;;;5.25;0.98;;;19.50;99.90;;;;;;4714153;30;20056;-85
2022/08/21 07:31:56;;;;;;;1.67;0.60;;;20.00;99.90;;;;;;4738771;30;20055;-86
2022/08/21 07:34:22;;;;;;;4.95;0.70;;;19.90;99.90;;;;;;4725669;30;20057;-86
2022/08/21 07:36:48;;;;;;;3.63;0.70;;;20.00;99.90;;;;;;4706971;30;20061;-86
2022/08/21 07:39:13;;;;;;;2.33;0.63;;;20.10;99.90;;;;;;4699981;30;20507;-87
2022/08/21 07:41:39;;;;;;;3.33;0.60;;;20.20;99.90;;;;;;4727517;30;20085;-87
2022/08/21 07:44:08;;;;;;;2.30;0.63;;;20.40;99.90;;;;;;4710953;30;20115;-86
2022/08/21 07:46:34;;;;;;;3.85;0.70;;;20.40;99.90;;;;;;4711024;30;20195;-90
2022/08/21 07:48:59;;;;;;;2.60;0.50;;;20.70;99.90;;;;;;4713251;30;20144;-86
2022/08/21 07:51:27;;;;;;;4.20;0.60;;;21.10;99.90;;;;;;4729692;30;20056;-88
2022/08/21 07:53:55;;;;;;;4.32;0.50;;;20.80;99.90;;;;;;4714491;30;20057;-88
2022/08/21 07:56:22;;;;;;;2.63;0.50;;;20.80;99.90;;;;;;4712848;30;20176;-89
2022/08/21 07:58:48;;;;;;;1.83;0.50;;;21.00;99.90;;;;;;4713643;30;20400;-86
2022/08/21 08:01:14;;;;;;;4.95;0.75;;;21.10;99.90;;;;;;4726146;30;20072;-86
2022/08/21 08:03:40;;;;;;;4.90;0.60;;;21.20;99.90;;;;;;4705877;30;20053;-85
2022/08/21 08:06:11;;;;;;;4.43;0.65;;;21.30;99.90;;;;;;4722660;30;20172;-91
2022/08/21 08:08:41;;;;;;;3.38;0.70;;;21.40;99.90;;;;;;4714468;30;20049;-87
2022/08/21 08:11:11;;;;;;;2.83;0.52;;;21.60;99.90;;;;;;4714701;30;20056;-87
2022/08/21 08:13:42;;;;;;;3.53;0.60;;;21.70;99.90;;;;;;4711552;30;20041;-86
2022/08/21 08:16:08;;;;;;;3.75;0.60;;;21.80;99.90;;;;;;4717199;30;20443;-87
2022/08/21 08:18:39;;;;;;;2.80;0.60;;;22.00;99.90;;;;;;4715855;30;20076;-86
2022/08/21 08:21:05;;;;;;;2.40;0.70;;;22.20;99.90;;;;;;4733290;30;20415;-91
2022/08/21 08:23:32;;;;;;;1.73;0.70;;;22.10;99.90;;;;;;4727312;30;20065;-87
2022/08/21 08:25:58;;;;;;;2.65;0.60;;;22.30;99.90;;;;;;4708827;30;20048;-87
2022/08/21 08:28:25;;;;;;;1.75;0.50;;;22.40;99.90;;;;;;4714862;30;20053;-86
2022/08/21 08:30:52;;;;;;;5.30;0.50;;;22.50;99.90;;;;;;4706512;30;20503;-89
2022/08/21 08:33:18;;;;;;;3.78;0.65;;;22.60;99.90;;;;;;4741391;30;20102;-89
2022/08/21 08:35:47;;;;;;;3.92;0.63;;;22.70;99.90;;;;;;4714291;30;20065;-86
2022/08/21 08:38:18;;;;;;;2.83;0.70;;;22.80;99.90;;;;;;4713562;30;20555;-86
2022/08/21 08:40:47;;;;;;;1.88;0.40;;;22.90;99.90;;;;;;4728987;30;20152;-85
2022/08/21 08:43:24;;;;;;;3.17;0.57;;;23.00;99.90;;;;;;4710132;25;20503;-86
2022/08/21 10:20:32;;;;;;;;;;;26.40;98.90;;;;;;5316594;24;20082;-85
2022/08/21 10:23:23;;;;;;;4.05;0.65;;;26.30;99.20;;;;;;4680610;30;19935;-86
2022/08/21 10:26:08;;;;;;;1.83;0.50;;;26.10;98.50;;;;;;4714793;30;20057;-87
2022/08/21 10:28:47;;;;;;;3.65;0.68;;;25.90;99.90;;;;;;4701304;30;20095;-86
2022/08/21 10:31:38;;;;;;;2.08;0.50;;;25.80;99.90;;;;;;4701248;30;20535;-86
2022/08/21 10:34:38;;;;;;;4.63;0.60;;;25.90;99.10;;;;;;4706260;30;20504;-86
2022/08/21 10:41:05;;;;;;;2.47;0.80;;;26.10;98.70;;;;;;4698754;30;20049;-90
2022/08/21 10:44:18;;;;;;;;;;;;;;;;;;;;;
2022/08/21 10:47:13;;;;;;;2.20;0.60;;;26.70;99.40;;;;;;4709827;30;20415;-89
2022/08/21 10:50:27;;;;;;;2.50;0.50;;;26.90;97.60;;;;;;4704027;30;20522;-88
2022/08/21 10:53:16;;;;;;;4.22;0.70;;;26.60;98.40;;;;;;4691782;30;20439;-89
2022/08/21 10:56:10;;;;;;;4.13;0.60;;;26.60;97.30;;;;;;4704549;30;20069;-88
2022/08/21 11:45:23;;;;;;;;;;;28.00;95.30;;;;;;5010957;24;20057;-87
2022/08/21 11:48:12;;;;;;;2.03;0.40;;;28.30;94.00;;;;;;4684654;24;20220;-88
2022/08/21 11:56:54;;;;;;;1.88;0.40;;;28.90;95.40;;;;;;4735005;24;20416;-89
2022/08/21 12:06:18;;;;;;;3.63;0.50;;;28.60;93.10;;;;;;4419469;28;20064;-89
2022/08/21 12:12:35;;;;;;;2.65;0.63;;;27.70;93.20;;;;;;4738876;30;20100;-88
2022/08/21 12:15:22;;;;;;;1.35;0.43;;;27.20;93.90;;;;;;4690742;30;20394;-90
2022/08/21 12:18:28;;;;;;;1.98;0.50;;;26.70;94.40;;;;;;4682894;30;20054;-86
2022/08/21 12:20:59;;;;;;;4.78;0.52;;;26.50;94.70;;;;;;4687506;30;20053;-89
2022/08/21 12:24:03;;;;;;;2.05;0.35;;;26.40;95.30;;;;;;4698160;30;20063;-88
2022/08/21 12:27:03;;;;;;;4.28;0.60;;;26.20;95.60;;;;;;4682482;30;20584;-87
2022/08/21 12:29:35;;;;;;;1.98;0.50;;;26.30;95.90;;;;;;4635637;30;20063;-88
2022/08/21 12:32:29;;;;;;;1.58;0.30;;;26.80;94.90;;;;;;4648475;30;20661;-87
2022/08/21 12:35:12;;;;;;;1.95;0.50;;;27.30;95.20;;;;;;4598370;30;20139;-90
2022/08/21 12:37:43;;;;;;;2.03;0.50;;;27.50;94.40;;;;;;4584932;31;20075;-85
2022/08/21 12:40:16;;;;;;;3.05;0.60;;;27.40;95.10;;;;;;4584592;31;20427;-89
2022/08/21 12:42:50;;;;;;;1.35;0.47;;;27.40;93.90;;;;;;4584839;31;20064;-87
2022/08/21 12:45:26;;;;;;;3.80;0.50;;;27.10;93.70;;;;;;4589200;31;20070;-86
2022/08/21 12:47:56;;;;;;;5.47;0.65;;;26.90;93.50;;;;;;4603708;30;20059;-87
2022/08/21 12:50:43;;;;;;;2.15;0.43;;;26.80;93.20;;;;;;4633749;30;20055;-86
2022/08/21 12:53:16;;;;;;;2.75;0.50;;;26.40;94.20;;;;;;4646362;30;20098;-87
2022/08/21 12:55:43;;;;;;;2.28;0.32;;;26.40;93.80;;;;;;4647329;30;20086;-84
2022/08/21 12:58:24;;;;;;;2.13;0.25;;;26.10;94.20;;;;;;4633361;30;20059;-87
2022/08/21 13:00:56;;;;;;;1.70;0.30;;;25.80;95.10;;;;;;4647616;30;20066;-84
2022/08/21 13:03:23;;;;;;;1.75;0.32;;;25.70;94.90;;;;;;4647608;30;20162;-85
2022/08/21 13:05:51;;;;;;;1.30;0.22;;;25.70;95.10;;;;;;4649840;30;20069;-86
2022/08/21 13:08:20;;;;;;;0.80;0.40;;;25.50;95.20;;;;;;4667500;30;20097;-89
2022/08/21 13:10:48;;;;;;;1.02;0.30;;;25.40;94.50;;;;;;4683895;30;20472;-84
2022/08/21 13:13:22;;;;;;;1.90;0.28;;;25.40;94.40;;;;;;4735650;30;20079;-84
2022/08/21 13:15:48;;;;;;;2.90;0.38;;;25.50;94.40;;;;;;4719655;30;20056;-84
2022/08/21 13:18:22;;;;;;;1.42;0.30;;;25.60;94.40;;;;;;4735471;30;20510;-86
2022/08/21 13:20:48;;;;;;;3.05;0.40;;;25.40;94.60;;;;;;4735285;30;20142;-86
2022/08/21 13:23:28;;;;;;;1.38;0.40;;;25.40;94.10;;;;;;4735258;30;20057;-85
2022/08/21 13:25:55;;;;;;;0.93;0.40;;;25.20;94.20;;;;;;4735532;30;20419;-85
2022/08/21 13:28:47;;;;;;;1.80;0.30;;;25.40;94.50;;;;;;4734528;30;20101;-88
2022/08/21 13:31:33;;;;;;;1.13;0.30;;;25.50;94.70;;;;;;4739950;30;20048;-89
2022/08/21 13:33:59;;;;;;;3.00;0.43;;;25.50;93.80;;;;;;4719156;30;20060;-85
2022/08/21 13:36:29;;;;;;;2.85;0.30;;;25.70;93.80;;;;;;4735319;30;20057;-87
2022/08/21 13:38:54;;;;;;;1.95;0.30;;;25.60;93.90;;;;;;4719684;30;20060;-86
2022/08/21 13:41:33;;;;;;;4.47;0.55;;;25.50;93.40;;;;;;4719268;30;20056;-87
2022/08/21 13:44:05;;;;;;;2.97;0.38;;;25.40;92.80;;;;;;4704874;30;20475;-87
2022/08/21 13:46:34;;;;;;;1.83;0.40;;;25.40;93.30;;;;;;4719464;30;20448;-86
2022/08/21 13:49:02;;;;;;;1.17;0.30;;;25.40;94.40;;;;;;4734819;30;20195;-86
2022/08/21 13:51:29;;;;;;;1.42;0.40;;;25.40;94.10;;;;;;4719382;30;20148;-85
2022/08/21 13:53:55;;;;;;;1.67;0.60;;;25.50;93.60;;;;;;4719640;30;20529;-86
2022/08/21 13:56:25;;;;;;;4.07;0.50;;;25.40;94.10;;;;;;4718888;30;20079;-85
2022/08/21 13:58:54;;;;;;;2.15;0.73;;;25.20;94.60;;;;;;4719003;30;20427;-85
2022/08/21 14:01:33;;;;;;;1.77;0.40;;;25.10;94.20;;;;;;4718450;30;20146;-87
2022/08/21 14:04:06;;;;;;;2.78;0.50;;;24.90;94.60;;;;;;4719251;30;20128;-86
2022/08/21 14:06:37;;;;;;;4.45;0.60;;;24.80;94.60;;;;;;4736500;30;20060;-87
2022/08/21 14:09:24;;;;;;;2.38;0.60;;;24.70;94.80;;;;;;4735965;30;20588;-85
2022/08/21 14:11:50;;;;;;;2.33;0.30;;;24.60;95.50;;;;;;4715731;30;20068;-88
2022/08/21 14:14:28;;;;;;;2.47;0.57;;;24.20;96.40;;;;;;4701091;30;20068;-88
2022/08/21 14:17:03;;;;;;;6.72;1.00;;;24.10;96.30;;;;;;4700778;30;20140;-84
2022/08/21 14:19:45;;;;;;;4.63;0.63;;;24.10;96.40;;;;;;4701777;30;20120;-86
2022/08/21 14:22:37;;;;;;;2.33;1.15;;;23.90;96.60;;;;;;4701019;30;20057;-85
2022/08/21 14:25:42;;;;;;;3.47;0.50;;;23.90;96.70;;;;;;4716412;30;20099;-86
2022/08/21 14:33:01;;;;;;;2.75;0.85;;;23.60;97.80;;;;;;4646704;30;20133;-88
2022/08/21 14:35:27;;;;;;;4.45;0.50;;;23.80;97.40;;;;;;4633051;30;20051;-87
2022/08/21 14:37:54;;;;;;;3.65;0.40;;;23.50;97.30;;;;;;4633702;30;20059;-86
2022/08/21 14:40:22;;;;;;;1.45;0.57;;;23.50;97.40;;;;;;4632952;30;20070;-87
2022/08/21 14:52:24;;;;;;;;;;;23.40;98.40;;;;;;4827731;24;20072;-91
2022/08/21 15:01:36;;;;;;;2.60;0.50;;;23.30;98.60;;;;;;4757889;24;20064;-87
2022/08/21 15:04:04;;;;;;;7.22;1.02;;;23.40;98.60;;;;;;4684594;30;20053;-86
2022/08/21 15:06:31;;;;;;;2.95;0.73;;;23.50;98.40;;;;;;4683834;30;20065;-89
2022/08/21 15:08:57;;;;;;;4.25;0.60;;;23.40;98.90;;;;;;4683722;30;20058;-86
2022/08/21 15:11:27;;;;;;;3.22;0.60;;;23.20;98.50;;;;;;4683880;30;20076;-88
2022/08/21 15:14:24;;;;;;;6.82;0.95;;;23.20;98.80;;;;;;4683872;30;20089;-87
2022/08/21 15:20:31;;;;;;;6.45;1.35;;;23.20;99.40;;;;;;4695752;25;20061;-87
2022/08/21 15:23:05;;;;;;;1.95;0.57;;;23.30;98.80;;;;;;4700401;30;20071;-88
2022/08/21 15:25:31;;;;;;;4.45;0.60;;;23.10;99.30;;;;;;4714419;30;20127;-88
2022/08/21 15:28:00;;;;;;;2.65;0.50;;;23.20;99.10;;;;;;4714195;30;20072;-85
2022/08/21 15:30:28;;;;;;;1.98;0.50;;;23.30;98.90;;;;;;4704218;30;20119;-86
2022/08/21 15:32:53;;;;;;;2.67;0.60;;;23.40;99.10;;;;;;4718815;30;20096;-86
2022/08/21 15:35:27;;;;;;;4.13;0.60;;;23.20;99.00;;;;;;4719432;30;20107;-85
2022/08/21 15:37:58;;;;;;;3.40;0.50;;;23.20;99.00;;;;;;4719393;30;20061;-85
2022/08/21 15:40:25;;;;;;;2.97;0.50;;;23.20;99.60;;;;;;4703639;30;20101;-86
2022/08/21 15:42:56;;;;;;;3.60;0.50;;;23.30;99.50;;;;;;4719141;30;20127;-86
2022/08/21 15:45:22;;;;;;;3.08;0.70;;;23.40;98.90;;;;;;4703016;30;20111;-85
2022/08/21 15:47:50;;;;;;;5.35;0.77;;;23.40;99.20;;;;;;4703429;30;20089;-86
2022/08/21 15:50:25;;;;;;;3.95;1.05;;;23.40;99.30;;;;;;4689396;30;20408;-88
2022/08/21 16:20:57;;;;;;;3.95;0.70;;;22.70;99.90;;;;;;4734353;24;20053;-93
2022/08/21 16:23:25;;;;;;;4.13;0.60;;;22.70;99.90;;;;;;4720193;30;20532;-88
2022/08/21 16:26:18;;;;;;;5.18;0.70;;;22.70;99.90;;;;;;4701878;30;20068;-91
2022/08/21 16:28:56;;;;;;;5.07;0.73;;;22.80;99.90;;;;;;4710163;30;20127;-92
2022/08/21 16:34:35;;;;;;;3.45;0.60;;;22.70;99.90;;;;;;4715168;30;20057;-92
2022/08/21 18:46:23;;;;;;;3.40;0.80;;;20.10;99.90;;;;;;4729818;25;20054;-87
2022/08/21 19:06:22;;;;;;;2.42;0.60;;;19.50;99.90;;;;;;4686250;30;20060;-86
2022/08/21 19:08:50;;;;;;;5.55;0.77;;;19.40;99.90;;;;;;4675902;30;20416;-89
2022/08/21 19:11:21;;;;;;;3.45;0.70;;;19.40;99.90;;;;;;4671514;30;20058;-87
2022/08/21 19:13:48;;;;;;;2.67;0.70;;;19.30;99.90;;;;;;4670285;30;20065;-88
2022/08/21 19:20:00;;;;;;;3.55;0.55;;;19.20;99.90;;;;;;4681248;30;20093;-86
2022/08/21 19:22:27;;;;;;;2.45;0.60;;;19.10;99.90;;;;;;4797772;24;20111;-88
2022/08/21 19:24:52;;;;;;;1.58;0.50;;;19.10;99.90;;;;;;4717087;30;20470;-88
2022/08/21 19:27:18;;;;;;;2.45;0.50;;;19.00;99.90;;;;;;4708377;30;20053;-87
2022/08/21 19:29:44;;;;;;;2.13;0.60;;;18.90;99.90;;;;;;4721676;30;20071;-87
2022/08/21 19:32:11;;;;;;;4.72;0.80;;;18.80;99.90;;;;;;4736819;30;20056;-87
2022/08/21 19:34:37;;;;;;;1.67;0.70;;;18.80;99.90;;;;;;4737204;30;20076;-84
2022/08/21 19:37:04;;;;;;;1.52;0.65;;;18.80;99.90;;;;;;4738256;30;20053;-85
2022/08/21 19:39:31;;;;;;;2.95;0.50;;;18.60;99.90;;;;;;4734762;30;20135;-89
2022/08/21 19:41:58;;;;;;;1.13;0.50;;;18.60;99.90;;;;;;4717402;30;20136;-86
2022/08/21 19:44:27;;;;;;;4.05;0.70;;;18.60;99.90;;;;;;4736603;30;20133;-84
2022/08/21 19:46:56;;;;;;;2.28;0.60;;;18.40;99.90;;;;;;4717475;30;20053;-85
2022/08/21 19:49:25;;;;;;;3.33;0.60;;;18.40;99.90;;;;;;4736065;30;20156;-85
2022/08/21 19:51:52;;;;;;;1.55;0.60;;;18.30;99.90;;;;;;4744176;30;20110;-88
2022/08/21 19:54:21;;;;;;;4.53;0.80;;;18.20;99.90;;;;;;4738265;30;20426;-86
2022/08/21 19:56:47;;;;;;;2.58;0.60;;;18.20;99.90;;;;;;4740824;30;20136;-87
2022/08/21 19:59:15;;;;;;;1.55;0.70;;;18.10;99.90;;;;;;4740700;30;20166;-87
2022/08/21 20:01:41;;;;;;;3.95;0.50;;;18.00;99.90;;;;;;4720644;30;20115;-87
2022/08/21 20:04:10;;;;;;;3.78;0.70;;;18.00;99.90;;;;;;4729585;30;20141;-85
2022/08/21 20:06:36;;;;;;;2.90;0.90;;;17.90;99.90;;;;;;4724727;30;20060;-87
2022/08/21 20:09:05;;;;;;;1.75;0.60;;;17.90;99.90;;;;;;4722541;30;20108;-85